Terminal Aerodrome Forecast
Issued by NWS Mobile, AL

Home | Current Version | Previous Version | Text Only | Print | Product List | Glossary On
Versions: 1 2 3 4 5 6 7 8 9 10 11 12 13 14 15 16 17 18 19 20 21 22 23 24 25 26 27 28 29 30 31 32
000
FTUS44 KMOB 241141
TAFPNS
TAF
KPNS 241141Z 2412/2512 22005KT P6SM SCT025 OVC120
     FM241600 25010KT 6SM -RA FEW015 SCT030 BKN050
     FM242100 21010KT P6SM VCTS FEW020 BKN030CB OVC050
      TEMPO 2421/2424 3SM -TSRA BKN020CB OVC035
     FM250000 25007KT P6SM FEW015 BKN025 OVC040=

USA.gov is the U.S. government's official web portal to all federal, state and local government web resources and services.